sensor_id;sensor_type;location;lat;lon;timestamp;P1;durP1;ratioP1;P2;durP2;ratioP2
35056;SDS011;21241;51.828;19.574;2023-06-14T00:00:05;8.30;;;7.70;;
35056;SDS011;21241;51.828;19.574;2023-06-14T00:02:35;7.60;;;7.00;;
35056;SDS011;21241;51.828;19.574;2023-06-14T00:05:04;7.50;;;7.00;;
35056;SDS011;21241;51.828;19.574;2023-06-14T00:07:36;7.30;;;6.80;;
35056;SDS011;21241;51.828;19.574;2023-06-14T00:10:11;7.60;;;7.10;;
35056;SDS011;21241;51.828;19.574;2023-06-14T00:12:40;7.10;;;6.50;;
35056;SDS011;21241;51.828;19.574;2023-06-14T00:15:08;7.80;;;7.10;;
35056;SDS011;21241;51.828;19.574;2023-06-14T00:17:37;7.60;;;6.60;;
35056;SDS011;21241;51.828;19.574;2023-06-14T00:20:07;8.10;;;7.40;;
35056;SDS011;21241;51.828;19.574;2023-06-14T00:22:35;7.70;;;7.20;;
35056;SDS011;21241;51.828;19.574;2023-06-14T00:25:05;7.70;;;7.10;;
35056;SDS011;21241;51.828;19.574;2023-06-14T00:27:56;8.00;;;7.40;;
35056;SDS011;21241;51.828;19.574;2023-06-14T00:30:25;8.40;;;7.60;;
35056;SDS011;21241;51.828;19.574;2023-06-14T00:32:58;8.20;;;7.60;;
35056;SDS011;21241;51.828;19.574;2023-06-14T00:35:26;8.90;;;8.20;;
35056;SDS011;21241;51.828;19.574;2023-06-14T00:37:53;8.30;;;7.60;;
35056;SDS011;21241;51.828;19.574;2023-06-14T00:40:22;9.20;;;8.20;;
35056;SDS011;21241;51.828;19.574;2023-06-14T00:42:51;8.60;;;7.90;;
35056;SDS011;21241;51.828;19.574;2023-06-14T00:45:19;8.40;;;7.70;;
35056;SDS011;21241;51.828;19.574;2023-06-14T00:47:48;8.60;;;8.00;;
35056;SDS011;21241;51.828;19.574;2023-06-14T00:50:20;8.80;;;8.20;;
35056;SDS011;21241;51.828;19.574;2023-06-14T00:52:49;9.00;;;8.10;;
35056;SDS011;21241;51.828;19.574;2023-06-14T00:55:18;8.40;;;7.80;;
35056;SDS011;21241;51.828;19.574;2023-06-14T00:57:46;8.90;;;8.20;;
35056;SDS011;21241;51.828;19.574;2023-06-14T01:00:15;8.90;;;8.30;;
35056;SDS011;21241;51.828;19.574;2023-06-14T01:02:43;9.90;;;9.20;;
35056;SDS011;21241;51.828;19.574;2023-06-14T01:05:11;9.20;;;8.40;;
35056;SDS011;21241;51.828;19.574;2023-06-14T01:07:51;9.50;;;8.80;;
35056;SDS011;21241;51.828;19.574;2023-06-14T01:10:40;9.60;;;8.80;;
35056;SDS011;21241;51.828;19.574;2023-06-14T01:13:20;9.80;;;9.00;;
35056;SDS011;21241;51.828;19.574;2023-06-14T01:15:51;9.30;;;8.70;;
35056;SDS011;21241;51.828;19.574;2023-06-14T01:18:22;9.50;;;8.80;;
35056;SDS011;21241;51.828;19.574;2023-06-14T01:20:51;10.10;;;9.10;;
35056;SDS011;21241;51.828;19.574;2023-06-14T01:23:25;9.70;;;9.00;;
35056;SDS011;21241;51.828;19.574;2023-06-14T01:26:01;10.00;;;9.20;;
35056;SDS011;21241;51.828;19.574;2023-06-14T01:28:31;10.60;;;9.70;;
35056;SDS011;21241;51.828;19.574;2023-06-14T01:31:02;11.40;;;10.40;;
35056;SDS011;21241;51.828;19.574;2023-06-14T01:33:33;10.90;;;10.10;;
35056;SDS011;21241;51.828;19.574;2023-06-14T01:36:03;11.00;;;10.20;;
35056;SDS011;21241;51.828;19.574;2023-06-14T01:38:32;11.30;;;10.50;;
35056;SDS011;21241;51.828;19.574;2023-06-14T01:41:00;10.90;;;10.00;;
35056;SDS011;21241;51.828;19.574;2023-06-14T01:43:29;12.10;;;11.10;;
35056;SDS011;21241;51.828;19.574;2023-06-14T01:45:58;12.70;;;11.60;;
35056;SDS011;21241;51.828;19.574;2023-06-14T01:48:27;11.70;;;10.80;;
35056;SDS011;21241;51.828;19.574;2023-06-14T01:50:55;13.40;;;12.30;;
35056;SDS011;21241;51.828;19.574;2023-06-14T01:53:23;12.70;;;11.80;;
35056;SDS011;21241;51.828;19.574;2023-06-14T01:55:51;12.40;;;11.60;;
35056;SDS011;21241;51.828;19.574;2023-06-14T01:58:22;13.70;;;12.70;;
35056;SDS011;21241;51.828;19.574;2023-06-14T02:00:51;13.40;;;12.30;;
35056;SDS011;21241;51.828;19.574;2023-06-14T02:03:22;13.50;;;12.50;;
35056;SDS011;21241;51.828;19.574;2023-06-14T02:05:52;13.80;;;12.80;;
35056;SDS011;21241;51.828;19.574;2023-06-14T02:08:20;14.10;;;13.10;;
35056;SDS011;21241;51.828;19.574;2023-06-14T02:10:48;14.20;;;13.00;;
35056;SDS011;21241;51.828;19.574;2023-06-14T02:13:15;14.80;;;13.60;;
35056;SDS011;21241;51.828;19.574;2023-06-14T02:15:43;14.30;;;13.30;;
35056;SDS011;21241;51.828;19.574;2023-06-14T02:18:13;14.50;;;13.50;;
35056;SDS011;21241;51.828;19.574;2023-06-14T02:20:40;15.10;;;14.00;;
35056;SDS011;21241;51.828;19.574;2023-06-14T02:23:08;14.60;;;13.60;;
35056;SDS011;21241;51.828;19.574;2023-06-14T02:25:36;15.10;;;13.80;;
35056;SDS011;21241;51.828;19.574;2023-06-14T02:28:07;15.80;;;14.70;;
35056;SDS011;21241;51.828;19.574;2023-06-14T02:30:35;15.20;;;14.10;;
35056;SDS011;21241;51.828;19.574;2023-06-14T02:33:03;15.20;;;14.10;;
35056;SDS011;21241;51.828;19.574;2023-06-14T02:35:32;15.70;;;14.60;;
35056;SDS011;21241;51.828;19.574;2023-06-14T02:38:00;15.20;;;14.20;;
35056;SDS011;21241;51.828;19.574;2023-06-14T02:40:28;14.60;;;13.60;;
35056;SDS011;21241;51.828;19.574;2023-06-14T02:42:57;15.00;;;13.90;;
35056;SDS011;21241;51.828;19.574;2023-06-14T02:45:25;14.80;;;13.80;;
35056;SDS011;21241;51.828;19.574;2023-06-14T02:47:54;14.40;;;13.40;;
35056;SDS011;21241;51.828;19.574;2023-06-14T02:50:23;15.30;;;14.30;;
35056;SDS011;21241;51.828;19.574;2023-06-14T02:52:51;15.30;;;14.20;;
35056;SDS011;21241;51.828;19.574;2023-06-14T02:55:20;15.50;;;14.20;;
35056;SDS011;21241;51.828;19.574;2023-06-14T02:57:48;15.60;;;14.50;;
35056;SDS011;21241;51.828;19.574;2023-06-14T03:00:17;16.30;;;15.00;;
35056;SDS011;21241;51.828;19.574;2023-06-14T03:02:47;18.20;;;16.80;;
35056;SDS011;21241;51.828;19.574;2023-06-14T03:05:15;16.70;;;15.50;;
35056;SDS011;21241;51.828;19.574;2023-06-14T03:07:43;18.30;;;16.90;;
35056;SDS011;21241;51.828;19.574;2023-06-14T03:10:13;18.70;;;17.30;;
35056;SDS011;21241;51.828;19.574;2023-06-14T03:12:43;18.50;;;17.20;;
35056;SDS011;21241;51.828;19.574;2023-06-14T03:15:11;17.50;;;16.30;;
35056;SDS011;21241;51.828;19.574;2023-06-14T03:17:43;17.80;;;16.50;;
35056;SDS011;21241;51.828;19.574;2023-06-14T03:20:14;17.80;;;16.50;;
35056;SDS011;21241;51.828;19.574;2023-06-14T03:22:44;17.40;;;16.10;;
35056;SDS011;21241;51.828;19.574;2023-06-14T03:25:14;17.80;;;16.60;;
35056;SDS011;21241;51.828;19.574;2023-06-14T03:27:43;18.50;;;17.20;;
35056;SDS011;21241;51.828;19.574;2023-06-14T03:30:12;17.80;;;16.50;;
35056;SDS011;21241;51.828;19.574;2023-06-14T03:32:41;18.60;;;17.20;;
35056;SDS011;21241;51.828;19.574;2023-06-14T03:35:09;18.30;;;16.80;;
35056;SDS011;21241;51.828;19.574;2023-06-14T03:37:44;17.80;;;16.30;;
35056;SDS011;21241;51.828;19.574;2023-06-14T03:40:14;18.10;;;16.80;;
35056;SDS011;21241;51.828;19.574;2023-06-14T03:42:45;16.50;;;15.30;;
35056;SDS011;21241;51.828;19.574;2023-06-14T03:45:13;17.90;;;16.60;;
35056;SDS011;21241;51.828;19.574;2023-06-14T03:47:41;18.00;;;16.40;;
35056;SDS011;21241;51.828;19.574;2023-06-14T03:50:09;18.40;;;16.90;;
35056;SDS011;21241;51.828;19.574;2023-06-14T03:52:38;17.50;;;16.30;;
35056;SDS011;21241;51.828;19.574;2023-06-14T03:55:06;17.20;;;16.00;;
35056;SDS011;21241;51.828;19.574;2023-06-14T03:57:39;19.20;;;17.90;;
35056;SDS011;21241;51.828;19.574;2023-06-14T04:00:09;17.40;;;16.20;;
35056;SDS011;21241;51.828;19.574;2023-06-14T04:02:41;17.80;;;16.60;;
35056;SDS011;21241;51.828;19.574;2023-06-14T04:05:11;18.80;;;17.40;;
35056;SDS011;21241;51.828;19.574;2023-06-14T04:07:45;18.90;;;17.60;;
35056;SDS011;21241;51.828;19.574;2023-06-14T04:10:15;19.30;;;17.80;;
35056;SDS011;21241;51.828;19.574;2023-06-14T04:12:45;18.90;;;17.30;;
35056;SDS011;21241;51.828;19.574;2023-06-14T04:15:13;18.80;;;17.40;;
35056;SDS011;21241;51.828;19.574;2023-06-14T04:17:51;18.80;;;17.50;;
35056;SDS011;21241;51.828;19.574;2023-06-14T04:20:21;19.20;;;17.90;;
35056;SDS011;21241;51.828;19.574;2023-06-14T04:22:49;18.80;;;17.40;;
35056;SDS011;21241;51.828;19.574;2023-06-14T04:25:17;19.90;;;18.50;;
35056;SDS011;21241;51.828;19.574;2023-06-14T04:27:52;18.50;;;17.20;;
35056;SDS011;21241;51.828;19.574;2023-06-14T04:30:21;20.30;;;18.80;;
35056;SDS011;21241;51.828;19.574;2023-06-14T04:32:55;19.20;;;17.70;;
35056;SDS011;21241;51.828;19.574;2023-06-14T04:35:24;19.10;;;17.80;;
35056;SDS011;21241;51.828;19.574;2023-06-14T04:37:53;20.00;;;18.60;;
35056;SDS011;21241;51.828;19.574;2023-06-14T04:40:21;18.60;;;17.30;;
35056;SDS011;21241;51.828;19.574;2023-06-14T04:42:49;19.50;;;18.10;;
35056;SDS011;21241;51.828;19.574;2023-06-14T04:45:19;19.90;;;18.50;;
35056;SDS011;21241;51.828;19.574;2023-06-14T04:47:47;20.40;;;18.90;;
35056;SDS011;21241;51.828;19.574;2023-06-14T04:50:15;20.90;;;19.10;;
35056;SDS011;21241;51.828;19.574;2023-06-14T04:52:45;19.90;;;18.50;;
35056;SDS011;21241;51.828;19.574;2023-06-14T04:55:13;20.90;;;19.20;;
35056;SDS011;21241;51.828;19.574;2023-06-14T04:57:42;19.90;;;18.40;;
35056;SDS011;21241;51.828;19.574;2023-06-14T05:00:10;19.70;;;18.10;;
35056;SDS011;21241;51.828;19.574;2023-06-14T05:02:40;19.60;;;18.30;;
35056;SDS011;21241;51.828;19.574;2023-06-14T05:05:08;20.60;;;19.00;;
35056;SDS011;21241;51.828;19.574;2023-06-14T05:07:36;20.00;;;18.60;;
35056;SDS011;21241;51.828;19.574;2023-06-14T05:10:09;19.80;;;18.40;;
35056;SDS011;21241;51.828;19.574;2023-06-14T05:12:38;19.60;;;18.10;;
35056;SDS011;21241;51.828;19.574;2023-06-14T05:15:07;19.60;;;18.10;;
35056;SDS011;21241;51.828;19.574;2023-06-14T05:17:36;19.50;;;18.10;;
35056;SDS011;21241;51.828;19.574;2023-06-14T05:20:06;19.30;;;17.90;;
35056;SDS011;21241;51.828;19.574;2023-06-14T05:22:34;17.80;;;16.50;;
35056;SDS011;21241;51.828;19.574;2023-06-14T05:25:02;18.80;;;17.30;;
35056;SDS011;21241;51.828;19.574;2023-06-14T05:27:30;18.70;;;17.30;;
35056;SDS011;21241;51.828;19.574;2023-06-14T05:29:58;18.50;;;17.10;;
35056;SDS011;21241;51.828;19.574;2023-06-14T05:32:27;19.10;;;17.80;;
35056;SDS011;21241;51.828;19.574;2023-06-14T05:34:54;19.00;;;17.60;;
35056;SDS011;21241;51.828;19.574;2023-06-14T05:37:23;17.90;;;16.50;;
35056;SDS011;21241;51.828;19.574;2023-06-14T05:39:51;19.40;;;17.80;;
35056;SDS011;21241;51.828;19.574;2023-06-14T05:42:19;19.70;;;18.30;;
35056;SDS011;21241;51.828;19.574;2023-06-14T05:44:48;17.60;;;16.30;;
35056;SDS011;21241;51.828;19.574;2023-06-14T05:47:16;17.80;;;16.20;;
35056;SDS011;21241;51.828;19.574;2023-06-14T05:49:44;17.90;;;16.60;;
35056;SDS011;21241;51.828;19.574;2023-06-14T05:52:11;17.40;;;16.10;;
35056;SDS011;21241;51.828;19.574;2023-06-14T05:54:40;16.60;;;15.40;;
35056;SDS011;21241;51.828;19.574;2023-06-14T05:57:10;16.10;;;14.90;;
35056;SDS011;21241;51.828;19.574;2023-06-14T05:59:38;13.90;;;12.90;;
35056;SDS011;21241;51.828;19.574;2023-06-14T06:02:06;15.00;;;14.00;;
35056;SDS011;21241;51.828;19.574;2023-06-14T06:04:34;14.70;;;13.60;;
35056;SDS011;21241;51.828;19.574;2023-06-14T06:07:02;15.60;;;14.40;;
35056;SDS011;21241;51.828;19.574;2023-06-14T06:09:31;15.20;;;14.00;;
35056;SDS011;21241;51.828;19.574;2023-06-14T06:11:59;16.90;;;15.40;;
35056;SDS011;21241;51.828;19.574;2023-06-14T06:14:27;15.50;;;14.30;;
35056;SDS011;21241;51.828;19.574;2023-06-14T06:16:55;15.80;;;14.70;;
35056;SDS011;21241;51.828;19.574;2023-06-14T06:19:23;14.50;;;13.40;;
35056;SDS011;21241;51.828;19.574;2023-06-14T06:21:51;14.40;;;13.30;;
35056;SDS011;21241;51.828;19.574;2023-06-14T06:24:18;15.20;;;13.90;;
35056;SDS011;21241;51.828;19.574;2023-06-14T06:26:46;13.90;;;13.00;;
35056;SDS011;21241;51.828;19.574;2023-06-14T06:29:14;14.60;;;13.40;;
35056;SDS011;21241;51.828;19.574;2023-06-14T06:31:41;13.20;;;12.30;;
35056;SDS011;21241;51.828;19.574;2023-06-14T06:34:09;13.50;;;12.60;;
35056;SDS011;21241;51.828;19.574;2023-06-14T06:36:37;13.90;;;12.80;;
35056;SDS011;21241;51.828;19.574;2023-06-14T06:39:05;14.00;;;12.80;;
35056;SDS011;21241;51.828;19.574;2023-06-14T06:41:37;13.30;;;12.40;;
35056;SDS011;21241;51.828;19.574;2023-06-14T06:44:07;13.30;;;12.40;;
35056;SDS011;21241;51.828;19.574;2023-06-14T06:46:35;11.90;;;10.90;;
35056;SDS011;21241;51.828;19.574;2023-06-14T06:49:07;11.70;;;10.80;;
35056;SDS011;21241;51.828;19.574;2023-06-14T06:51:36;13.00;;;12.00;;
35056;SDS011;21241;51.828;19.574;2023-06-14T06:54:04;10.80;;;10.00;;
35056;SDS011;21241;51.828;19.574;2023-06-14T06:56:33;11.80;;;10.90;;
35056;SDS011;21241;51.828;19.574;2023-06-14T06:59:02;11.20;;;10.40;;
35056;SDS011;21241;51.828;19.574;2023-06-14T07:01:30;10.30;;;9.60;;
35056;SDS011;21241;51.828;19.574;2023-06-14T07:03:58;9.90;;;9.20;;
35056;SDS011;21241;51.828;19.574;2023-06-14T07:06:25;11.30;;;10.40;;
35056;SDS011;21241;51.828;19.574;2023-06-14T07:08:55;10.50;;;9.70;;
35056;SDS011;21241;51.828;19.574;2023-06-14T07:11:22;10.80;;;10.00;;
35056;SDS011;21241;51.828;19.574;2023-06-14T07:13:50;10.40;;;9.50;;
35056;SDS011;21241;51.828;19.574;2023-06-14T07:16:18;10.60;;;9.70;;
35056;SDS011;21241;51.828;19.574;2023-06-14T07:18:46;11.20;;;10.10;;
35056;SDS011;21241;51.828;19.574;2023-06-14T07:21:13;9.10;;;8.50;;
35056;SDS011;21241;51.828;19.574;2023-06-14T07:23:41;9.70;;;9.00;;
35056;SDS011;21241;51.828;19.574;2023-06-14T07:26:09;9.30;;;8.50;;
35056;SDS011;21241;51.828;19.574;2023-06-14T07:28:37;9.20;;;8.50;;
35056;SDS011;21241;51.828;19.574;2023-06-14T07:31:05;8.00;;;7.30;;
35056;SDS011;21241;51.828;19.574;2023-06-14T07:33:32;8.20;;;7.50;;
35056;SDS011;21241;51.828;19.574;2023-06-14T07:36:00;8.20;;;7.60;;
35056;SDS011;21241;51.828;19.574;2023-06-14T07:38:29;8.70;;;8.00;;
35056;SDS011;21241;51.828;19.574;2023-06-14T07:40:56;7.80;;;7.30;;
35056;SDS011;21241;51.828;19.574;2023-06-14T07:43:24;7.90;;;7.30;;
35056;SDS011;21241;51.828;19.574;2023-06-14T07:45:52;8.90;;;8.20;;
35056;SDS011;21241;51.828;19.574;2023-06-14T07:48:34;8.30;;;7.60;;
35056;SDS011;21241;51.828;19.574;2023-06-14T07:51:03;8.50;;;7.80;;
35056;SDS011;21241;51.828;19.574;2023-06-14T07:53:31;8.00;;;7.30;;
35056;SDS011;21241;51.828;19.574;2023-06-14T07:55:59;8.10;;;7.50;;
35056;SDS011;21241;51.828;19.574;2023-06-14T07:58:28;7.70;;;7.10;;
35056;SDS011;21241;51.828;19.574;2023-06-14T08:00:55;8.50;;;7.70;;
35056;SDS011;21241;51.828;19.574;2023-06-14T08:03:23;7.60;;;7.00;;
35056;SDS011;21241;51.828;19.574;2023-06-14T08:05:52;8.10;;;7.40;;
35056;SDS011;21241;51.828;19.574;2023-06-14T08:08:20;7.80;;;7.20;;
35056;SDS011;21241;51.828;19.574;2023-06-14T08:10:47;7.90;;;7.20;;
35056;SDS011;21241;51.828;19.574;2023-06-14T08:13:15;8.20;;;7.60;;
35056;SDS011;21241;51.828;19.574;2023-06-14T08:15:43;7.90;;;7.30;;
35056;SDS011;21241;51.828;19.574;2023-06-14T08:18:11;8.90;;;8.10;;
35056;SDS011;21241;51.828;19.574;2023-06-14T08:20:39;8.30;;;7.60;;
35056;SDS011;21241;51.828;19.574;2023-06-14T08:23:07;7.90;;;7.10;;
35056;SDS011;21241;51.828;19.574;2023-06-14T08:25:36;8.70;;;8.00;;
35056;SDS011;21241;51.828;19.574;2023-06-14T08:28:04;8.50;;;7.90;;
35056;SDS011;21241;51.828;19.574;2023-06-14T08:30:32;7.90;;;7.20;;
35056;SDS011;21241;51.828;19.574;2023-06-14T08:33:00;8.40;;;7.70;;
35056;SDS011;21241;51.828;19.574;2023-06-14T08:35:42;8.10;;;7.50;;
35056;SDS011;21241;51.828;19.574;2023-06-14T08:38:10;7.70;;;7.20;;
35056;SDS011;21241;51.828;19.574;2023-06-14T08:40:40;8.80;;;8.10;;
35056;SDS011;21241;51.828;19.574;2023-06-14T08:43:09;9.00;;;8.20;;
35056;SDS011;21241;51.828;19.574;2023-06-14T08:45:37;8.50;;;7.80;;
35056;SDS011;21241;51.828;19.574;2023-06-14T08:48:07;8.70;;;8.00;;
35056;SDS011;21241;51.828;19.574;2023-06-14T08:50:36;8.20;;;7.60;;
35056;SDS011;21241;51.828;19.574;2023-06-14T08:53:07;7.90;;;7.20;;
35056;SDS011;21241;51.828;19.574;2023-06-14T08:55:38;7.60;;;7.10;;
35056;SDS011;21241;51.828;19.574;2023-06-14T08:58:10;6.70;;;6.20;;
35056;SDS011;21241;51.828;19.574;2023-06-14T09:00:42;6.50;;;6.00;;
35056;SDS011;21241;51.828;19.574;2023-06-14T09:03:11;7.10;;;6.50;;
35056;SDS011;21241;51.828;19.574;2023-06-14T09:05:41;8.50;;;7.80;;
35056;SDS011;21241;51.828;19.574;2023-06-14T09:08:09;7.60;;;7.00;;
35056;SDS011;21241;51.828;19.574;2023-06-14T09:10:37;8.00;;;7.20;;
35056;SDS011;21241;51.828;19.574;2023-06-14T09:13:07;7.60;;;7.00;;
35056;SDS011;21241;51.828;19.574;2023-06-14T09:15:35;7.90;;;7.30;;
35056;SDS011;21241;51.828;19.574;2023-06-14T09:18:03;7.30;;;6.80;;
35056;SDS011;21241;51.828;19.574;2023-06-14T09:20:31;7.50;;;6.80;;
35056;SDS011;21241;51.828;19.574;2023-06-14T09:23:00;8.00;;;7.30;;
35056;SDS011;21241;51.828;19.574;2023-06-14T09:25:28;6.50;;;6.00;;
35056;SDS011;21241;51.828;19.574;2023-06-14T09:28:07;7.20;;;6.60;;
35056;SDS011;21241;51.828;19.574;2023-06-14T09:30:37;6.80;;;6.20;;
35056;SDS011;21241;51.828;19.574;2023-06-14T09:33:05;6.80;;;6.10;;
35056;SDS011;21241;51.828;19.574;2023-06-14T09:35:33;7.10;;;6.50;;
35056;SDS011;21241;51.828;19.574;2023-06-14T09:38:01;7.10;;;6.50;;
35056;SDS011;21241;51.828;19.574;2023-06-14T09:40:31;6.60;;;6.10;;
35056;SDS011;21241;51.828;19.574;2023-06-14T09:43:01;7.00;;;6.30;;
35056;SDS011;21241;51.828;19.574;2023-06-14T09:45:31;7.30;;;6.70;;
35056;SDS011;21241;51.828;19.574;2023-06-14T09:48:01;6.20;;;5.70;;
35056;SDS011;21241;51.828;19.574;2023-06-14T09:50:34;7.50;;;6.70;;
35056;SDS011;21241;51.828;19.574;2023-06-14T09:53:06;6.80;;;6.20;;
35056;SDS011;21241;51.828;19.574;2023-06-14T09:55:35;6.20;;;5.70;;
35056;SDS011;21241;51.828;19.574;2023-06-14T09:58:05;6.90;;;6.20;;
35056;SDS011;21241;51.828;19.574;2023-06-14T10:00:36;7.90;;;7.20;;
35056;SDS011;21241;51.828;19.574;2023-06-14T10:03:11;6.60;;;6.00;;
35056;SDS011;21241;51.828;19.574;2023-06-14T10:05:41;7.40;;;6.80;;
35056;SDS011;21241;51.828;19.574;2023-06-14T10:08:15;7.90;;;7.20;;
35056;SDS011;21241;51.828;19.574;2023-06-14T10:10:45;6.50;;;5.90;;
35056;SDS011;21241;51.828;19.574;2023-06-14T10:13:13;7.00;;;6.40;;
35056;SDS011;21241;51.828;19.574;2023-06-14T10:18:35;7.50;;;6.90;;
35056;SDS011;21241;51.828;19.574;2023-06-14T10:23:51;7.70;;;7.10;;
35056;SDS011;21241;51.828;19.574;2023-06-14T10:26:20;7.90;;;6.80;;
35056;SDS011;21241;51.828;19.574;2023-06-14T10:29:06;11.60;;;7.40;;
35056;SDS011;21241;51.828;19.574;2023-06-14T10:34:26;7.20;;;6.60;;
35056;SDS011;21241;51.828;19.574;2023-06-14T10:37:04;7.90;;;7.20;;
35056;SDS011;21241;51.828;19.574;2023-06-14T10:39:43;7.60;;;6.90;;
35056;SDS011;21241;51.828;19.574;2023-06-14T10:42:13;7.20;;;6.60;;
35056;SDS011;21241;51.828;19.574;2023-06-14T10:44:51;7.30;;;6.70;;
35056;SDS011;21241;51.828;19.574;2023-06-14T10:47:24;7.90;;;7.30;;
35056;SDS011;21241;51.828;19.574;2023-06-14T10:50:09;8.30;;;7.70;;
35056;SDS011;21241;51.828;19.574;2023-06-14T10:52:39;8.00;;;7.40;;
35056;SDS011;21241;51.828;19.574;2023-06-14T10:55:17;8.10;;;7.40;;
35056;SDS011;21241;51.828;19.574;2023-06-14T10:57:48;8.70;;;7.90;;
35056;SDS011;21241;51.828;19.574;2023-06-14T11:00:23;8.40;;;7.80;;
35056;SDS011;21241;51.828;19.574;2023-06-14T11:03:10;7.80;;;7.10;;
35056;SDS011;21241;51.828;19.574;2023-06-14T11:05:53;8.60;;;7.90;;
35056;SDS011;21241;51.828;19.574;2023-06-14T11:11:30;7.60;;;7.00;;
35056;SDS011;21241;51.828;19.574;2023-06-14T11:14:00;6.70;;;6.30;;
35056;SDS011;21241;51.828;19.574;2023-06-14T11:16:29;7.20;;;6.50;;
35056;SDS011;21241;51.828;19.574;2023-06-14T11:19:02;7.80;;;6.50;;
35056;SDS011;21241;51.828;19.574;2023-06-14T11:21:33;6.60;;;6.10;;
35056;SDS011;21241;51.828;19.574;2023-06-14T11:24:02;6.10;;;5.70;;
35056;SDS011;21241;51.828;19.574;2023-06-14T11:26:30;7.40;;;6.80;;
35056;SDS011;21241;51.828;19.574;2023-06-14T11:29:01;7.00;;;6.40;;
35056;SDS011;21241;51.828;19.574;2023-06-14T11:31:29;6.70;;;6.10;;
35056;SDS011;21241;51.828;19.574;2023-06-14T11:33:58;7.10;;;6.20;;
35056;SDS011;21241;51.828;19.574;2023-06-14T11:36:28;7.40;;;6.80;;
35056;SDS011;21241;51.828;19.574;2023-06-14T11:39:05;7.00;;;6.50;;
35056;SDS011;21241;51.828;19.574;2023-06-14T11:41:40;7.20;;;6.60;;
35056;SDS011;21241;51.828;19.574;2023-06-14T11:44:09;7.10;;;6.50;;
35056;SDS011;21241;51.828;19.574;2023-06-14T11:46:37;6.60;;;6.00;;
35056;SDS011;21241;51.828;19.574;2023-06-14T11:49:06;7.20;;;6.60;;
35056;SDS011;21241;51.828;19.574;2023-06-14T11:51:35;6.60;;;6.10;;
35056;SDS011;21241;51.828;19.574;2023-06-14T11:54:03;6.70;;;6.20;;
35056;SDS011;21241;51.828;19.574;2023-06-14T11:56:33;6.70;;;6.20;;
35056;SDS011;21241;51.828;19.574;2023-06-14T11:59:02;6.20;;;5.70;;
35056;SDS011;21241;51.828;19.574;2023-06-14T12:01:30;7.20;;;6.40;;
35056;SDS011;21241;51.828;19.574;2023-06-14T12:03:59;6.70;;;6.10;;
35056;SDS011;21241;51.828;19.574;2023-06-14T12:06:29;6.20;;;5.80;;
35056;SDS011;21241;51.828;19.574;2023-06-14T12:09:07;6.70;;;6.00;;
35056;SDS011;21241;51.828;19.574;2023-06-14T12:11:38;7.90;;;7.30;;
35056;SDS011;21241;51.828;19.574;2023-06-14T12:14:08;6.60;;;6.00;;
35056;SDS011;21241;51.828;19.574;2023-06-14T12:16:39;6.70;;;6.10;;
35056;SDS011;21241;51.828;19.574;2023-06-14T12:19:14;6.90;;;6.20;;
35056;SDS011;21241;51.828;19.574;2023-06-14T12:21:45;6.80;;;6.30;;
35056;SDS011;21241;51.828;19.574;2023-06-14T12:24:16;7.50;;;6.90;;
35056;SDS011;21241;51.828;19.574;2023-06-14T12:26:44;8.70;;;7.80;;
35056;SDS011;21241;51.828;19.574;2023-06-14T12:29:12;8.20;;;7.60;;
35056;SDS011;21241;51.828;19.574;2023-06-14T12:31:41;8.90;;;8.10;;
35056;SDS011;21241;51.828;19.574;2023-06-14T12:34:09;9.30;;;8.50;;
35056;SDS011;21241;51.828;19.574;2023-06-14T12:36:38;10.70;;;9.80;;
35056;SDS011;21241;51.828;19.574;2023-06-14T12:39:12;6.60;;;6.00;;
35056;SDS011;21241;51.828;19.574;2023-06-14T12:41:40;5.20;;;4.80;;
35056;SDS011;21241;51.828;19.574;2023-06-14T12:44:10;6.80;;;6.30;;
35056;SDS011;21241;51.828;19.574;2023-06-14T12:46:39;7.90;;;7.30;;
35056;SDS011;21241;51.828;19.574;2023-06-14T12:49:08;8.90;;;8.20;;
35056;SDS011;21241;51.828;19.574;2023-06-14T12:51:37;10.90;;;10.10;;
35056;SDS011;21241;51.828;19.574;2023-06-14T12:54:06;12.30;;;11.40;;
35056;SDS011;21241;51.828;19.574;2023-06-14T12:56:34;11.50;;;10.70;;
35056;SDS011;21241;51.828;19.574;2023-06-14T12:59:02;12.80;;;11.90;;
35056;SDS011;21241;51.828;19.574;2023-06-14T13:01:30;13.70;;;12.70;;
35056;SDS011;21241;51.828;19.574;2023-06-14T13:03:58;14.90;;;13.80;;
35056;SDS011;21241;51.828;19.574;2023-06-14T13:06:26;15.70;;;14.60;;
35056;SDS011;21241;51.828;19.574;2023-06-14T13:08:53;14.80;;;13.80;;
35056;SDS011;21241;51.828;19.574;2023-06-14T13:11:25;15.50;;;14.30;;
35056;SDS011;21241;51.828;19.574;2023-06-14T13:13:52;15.80;;;14.60;;
35056;SDS011;21241;51.828;19.574;2023-06-14T13:16:20;15.80;;;14.60;;
35056;SDS011;21241;51.828;19.574;2023-06-14T13:18:48;16.50;;;15.50;;
35056;SDS011;21241;51.828;19.574;2023-06-14T13:21:16;15.60;;;14.40;;
35056;SDS011;21241;51.828;19.574;2023-06-14T13:23:44;14.80;;;13.60;;
35056;SDS011;21241;51.828;19.574;2023-06-14T13:26:12;12.50;;;11.50;;
35056;SDS011;21241;51.828;19.574;2023-06-14T13:28:40;12.00;;;11.10;;
35056;SDS011;21241;51.828;19.574;2023-06-14T13:31:07;11.80;;;10.90;;
35056;SDS011;21241;51.828;19.574;2023-06-14T13:33:35;11.50;;;10.60;;
35056;SDS011;21241;51.828;19.574;2023-06-14T13:36:03;13.00;;;12.00;;
35056;SDS011;21241;51.828;19.574;2023-06-14T13:38:31;14.10;;;13.10;;
35056;SDS011;21241;51.828;19.574;2023-06-14T13:40:59;14.40;;;13.30;;
35056;SDS011;21241;51.828;19.574;2023-06-14T13:43:27;15.00;;;14.00;;
35056;SDS011;21241;51.828;19.574;2023-06-14T13:45:55;15.40;;;14.30;;
35056;SDS011;21241;51.828;19.574;2023-06-14T13:48:23;16.50;;;15.30;;
35056;SDS011;21241;51.828;19.574;2023-06-14T13:50:51;17.30;;;15.90;;
35056;SDS011;21241;51.828;19.574;2023-06-14T13:53:18;15.90;;;14.70;;
35056;SDS011;21241;51.828;19.574;2023-06-14T13:55:46;15.10;;;14.00;;
35056;SDS011;21241;51.828;19.574;2023-06-14T13:58:14;15.40;;;14.20;;
35056;SDS011;21241;51.828;19.574;2023-06-14T14:00:42;14.70;;;13.70;;
35056;SDS011;21241;51.828;19.574;2023-06-14T14:03:11;15.70;;;14.60;;
35056;SDS011;21241;51.828;19.574;2023-06-14T14:05:39;16.70;;;15.50;;
35056;SDS011;21241;51.828;19.574;2023-06-14T14:08:07;16.50;;;15.40;;
35056;SDS011;21241;51.828;19.574;2023-06-14T14:10:35;17.60;;;16.10;;
35056;SDS011;21241;51.828;19.574;2023-06-14T14:13:03;18.10;;;16.80;;
35056;SDS011;21241;51.828;19.574;2023-06-14T14:15:30;15.50;;;14.20;;
35056;SDS011;21241;51.828;19.574;2023-06-14T14:18:02;15.10;;;14.10;;
35056;SDS011;21241;51.828;19.574;2023-06-14T14:20:31;15.30;;;14.30;;
35056;SDS011;21241;51.828;19.574;2023-06-14T14:22:59;15.90;;;14.70;;
35056;SDS011;21241;51.828;19.574;2023-06-14T14:25:27;12.90;;;11.80;;
35056;SDS011;21241;51.828;19.574;2023-06-14T14:27:54;15.10;;;14.00;;
35056;SDS011;21241;51.828;19.574;2023-06-14T14:30:23;15.10;;;13.80;;
35056;SDS011;21241;51.828;19.574;2023-06-14T14:32:51;15.70;;;14.40;;
35056;SDS011;21241;51.828;19.574;2023-06-14T14:35:20;16.70;;;15.50;;
35056;SDS011;21241;51.828;19.574;2023-06-14T14:37:51;16.30;;;15.20;;
35056;SDS011;21241;51.828;19.574;2023-06-14T14:40:19;17.20;;;16.00;;
35056;SDS011;21241;51.828;19.574;2023-06-14T14:42:47;16.90;;;15.70;;
35056;SDS011;21241;51.828;19.574;2023-06-14T14:45:15;15.00;;;14.00;;